Terminal Aerodrome Forecast
Issued by NWS Tuscon, AZ

Home | Current Version | Previous Version | Text Only | Print | Product List | Glossary On
Versions: 1 2 3 4 5 6 7 8 9 10 11 12 13
000
FTUS45 KTWC 220902 AAA
TAFTUS
TAF AMD
KTUS 220902Z 2209/2306 15006KT P6SM BKN110
     FM221700 22015G24KT P6SM FEW120 SCT200
     FM230200 23006KT P6SM FEW200=

USA.gov is the U.S. government's official web portal to all federal, state and local government web resources and services.